sensor_id;sensor_type;location;lat;lon;timestamp;pressure;altitude;pressure_sealevel;temperature;humidity
13314;BME280;6725;48.112;11.604;2023-03-12T00:00:58;94887.47;;;0.61;100.00
13314;BME280;6725;48.112;11.604;2023-03-12T00:03:25;94874.41;;;0.59;100.00
13314;BME280;6725;48.112;11.604;2023-03-12T00:05:50;94886.69;;;0.60;100.00
13314;BME280;6725;48.112;11.604;2023-03-12T00:08:16;94882.31;;;0.52;100.00
13314;BME280;6725;48.112;11.604;2023-03-12T00:10:41;94888.78;;;0.51;100.00
13314;BME280;6725;48.112;11.604;2023-03-12T00:13:07;94875.78;;;0.53;100.00
13314;BME280;6725;48.112;11.604;2023-03-12T00:15:37;94882.31;;;0.52;100.00
13314;BME280;6725;48.112;11.604;2023-03-12T00:18:02;94876.50;;;0.50;100.00
13314;BME280;6725;48.112;11.604;2023-03-12T00:20:28;94878.84;;;0.52;100.00
13314;BME280;6725;48.112;11.604;2023-03-12T00:22:53;94881.22;;;0.57;100.00
13314;BME280;6725;48.112;11.604;2023-03-12T00:25:19;94878.13;;;0.55;100.00
13314;BME280;6725;48.112;11.604;2023-03-12T00:27:45;94876.66;;;0.57;100.00
13314;BME280;6725;48.112;11.604;2023-03-12T00:30:11;94874.31;;;0.56;100.00
13314;BME280;6725;48.112;11.604;2023-03-12T00:32:37;94883.16;;;0.56;100.00
13314;BME280;6725;48.112;11.604;2023-03-12T00:35:03;94882.09;;;0.61;100.00
13314;BME280;6725;48.112;11.604;2023-03-12T00:37:29;94889.53;;;0.67;100.00
13314;BME280;6725;48.112;11.604;2023-03-12T00:39:54;94887.69;;;0.71;100.00
13314;BME280;6725;48.112;11.604;2023-03-12T00:42:19;94879.97;;;0.70;100.00
13314;BME280;6725;48.112;11.604;2023-03-12T00:44:45;94880.69;;;0.67;100.00
13314;BME280;6725;48.112;11.604;2023-03-12T00:47:11;94897.59;;;0.67;100.00
13314;BME280;6725;48.112;11.604;2023-03-12T00:49:37;94887.47;;;0.61;100.00
13314;BME280;6725;48.112;11.604;2023-03-12T00:52:03;94881.59;;;0.55;100.00
13314;BME280;6725;48.112;11.604;2023-03-12T00:54:28;94881.16;;;0.53;100.00
13314;BME280;6725;48.112;11.604;2023-03-12T00:56:54;94889.50;;;0.48;100.00
13314;BME280;6725;48.112;11.604;2023-03-12T00:59:19;94881.72;;;0.43;100.00
13314;BME280;6725;48.112;11.604;2023-03-12T01:01:44;94883.91;;;0.38;100.00
13314;BME280;6725;48.112;11.604;2023-03-12T01:04:10;94880.72;;;0.32;100.00
13314;BME280;6725;48.112;11.604;2023-03-12T01:06:36;94880.66;;;0.29;100.00
13314;BME280;6725;48.112;11.604;2023-03-12T01:09:02;94882.97;;;0.30;100.00
13314;BME280;6725;48.112;11.604;2023-03-12T01:11:30;94877.97;;;0.29;100.00
13314;BME280;6725;48.112;11.604;2023-03-12T01:13:57;94888.59;;;0.25;100.00
13314;BME280;6725;48.112;11.604;2023-03-12T01:16:22;94888.19;;;0.23;100.00
13314;BME280;6725;48.112;11.604;2023-03-12T01:18:52;94895.09;;;0.24;100.00
13314;BME280;6725;48.112;11.604;2023-03-12T01:21:17;94883.50;;;0.20;100.00
13314;BME280;6725;48.112;11.604;2023-03-12T01:23:43;94880.31;;;0.15;100.00
13314;BME280;6725;48.112;11.604;2023-03-12T01:26:08;94886.47;;;0.15;100.00
13314;BME280;6725;48.112;11.604;2023-03-12T01:28:34;94894.25;;;0.20;100.00
13314;BME280;6725;48.112;11.604;2023-03-12T01:31:08;94876.66;;;0.23;100.00
13314;BME280;6725;48.112;11.604;2023-03-12T01:33:34;94883.69;;;0.27;100.00
13314;BME280;6725;48.112;11.604;2023-03-12T01:35:59;94901.44;;;0.32;100.00
13314;BME280;6725;48.112;11.604;2023-03-12T01:38:24;94902.34;;;0.39;100.00
13314;BME280;6725;48.112;11.604;2023-03-12T01:40:50;94894.88;;;0.48;100.00
13314;BME280;6725;48.112;11.604;2023-03-12T01:43:31;94899.53;;;0.51;100.00
13314;BME280;6725;48.112;11.604;2023-03-12T01:48:43;94883.56;;;0.58;100.00
13314;BME280;6725;48.112;11.604;2023-03-12T01:51:12;94890.56;;;0.63;100.00
13314;BME280;6725;48.112;11.604;2023-03-12T01:53:41;94888.38;;;0.68;100.00
13314;BME280;6725;48.112;11.604;2023-03-12T01:56:09;94879.41;;;0.80;100.00
13314;BME280;6725;48.112;11.604;2023-03-12T01:58:36;94881.81;;;0.85;100.00
13314;BME280;6725;48.112;11.604;2023-03-12T02:01:03;94878.97;;;0.97;100.00
13314;BME280;6725;48.112;11.604;2023-03-12T02:03:29;94891.78;;;1.03;100.00
13314;BME280;6725;48.112;11.604;2023-03-12T02:06:00;94880.31;;;1.06;100.00
13314;BME280;6725;48.112;11.604;2023-03-12T02:08:26;94890.09;;;1.14;100.00
13314;BME280;6725;48.112;11.604;2023-03-12T02:10:52;94895.16;;;1.19;100.00
13314;BME280;6725;48.112;11.604;2023-03-12T02:13:18;94891.75;;;1.22;100.00
13314;BME280;6725;48.112;11.604;2023-03-12T02:15:43;94893.19;;;1.16;100.00
13314;BME280;6725;48.112;11.604;2023-03-12T02:18:12;94899.00;;;1.18;100.00
13314;BME280;6725;48.112;11.604;2023-03-12T02:23:38;94910.84;;;1.17;100.00
13314;BME280;6725;48.112;11.604;2023-03-12T02:26:06;94916.53;;;1.12;100.00
13314;BME280;6725;48.112;11.604;2023-03-12T02:28:33;94919.22;;;1.12;100.00
13314;BME280;6725;48.112;11.604;2023-03-12T02:31:06;94919.50;;;1.07;100.00
13314;BME280;6725;48.112;11.604;2023-03-12T02:33:33;94917.03;;;0.99;100.00
13314;BME280;6725;48.112;11.604;2023-03-12T02:35:58;94919.56;;;0.92;100.00
13314;BME280;6725;48.112;11.604;2023-03-12T02:40:52;94921.47;;;0.72;100.00
13314;BME280;6725;48.112;11.604;2023-03-12T02:43:20;94922.31;;;0.57;100.00
13314;BME280;6725;48.112;11.604;2023-03-12T02:45:46;94918.75;;;0.53;100.00
13314;BME280;6725;48.112;11.604;2023-03-12T02:48:12;94917.91;;;0.49;100.00
13314;BME280;6725;48.112;11.604;2023-03-12T02:50:37;94908.66;;;0.47;100.00
13314;BME280;6725;48.112;11.604;2023-03-12T02:53:03;94916.97;;;0.42;100.00
13314;BME280;6725;48.112;11.604;2023-03-12T02:55:28;94921.56;;;0.41;100.00
13314;BME280;6725;48.112;11.604;2023-03-12T02:57:53;94918.78;;;0.38;100.00
13314;BME280;6725;48.112;11.604;2023-03-12T03:00:19;94922.97;;;0.35;100.00
13314;BME280;6725;48.112;11.604;2023-03-12T03:02:44;94919.94;;;0.37;100.00
13314;BME280;6725;48.112;11.604;2023-03-12T03:05:11;94923.91;;;0.43;100.00
13314;BME280;6725;48.112;11.604;2023-03-12T03:07:36;94926.59;;;0.43;100.00
13314;BME280;6725;48.112;11.604;2023-03-12T03:10:03;94928.56;;;0.46;100.00
13314;BME280;6725;48.112;11.604;2023-03-12T03:12:33;94929.00;;;0.48;100.00
13314;BME280;6725;48.112;11.604;2023-03-12T03:14:59;94917.06;;;0.45;100.00
13314;BME280;6725;48.112;11.604;2023-03-12T03:17:26;94930.13;;;0.47;100.00
13314;BME280;6725;48.112;11.604;2023-03-12T03:19:52;94930.19;;;0.50;100.00
13314;BME280;6725;48.112;11.604;2023-03-12T03:22:19;94932.63;;;0.55;100.00
13314;BME280;6725;48.112;11.604;2023-03-12T03:24:45;94931.16;;;0.58;100.00
13314;BME280;6725;48.112;11.604;2023-03-12T03:27:11;94928.19;;;0.63;100.00
13314;BME280;6725;48.112;11.604;2023-03-12T03:29:36;94931.31;;;0.65;100.00
13314;BME280;6725;48.112;11.604;2023-03-12T03:32:02;94933.34;;;0.71;100.00
13314;BME280;6725;48.112;11.604;2023-03-12T03:34:27;94928.53;;;0.80;100.00
13314;BME280;6725;48.112;11.604;2023-03-12T03:36:53;94922.47;;;0.83;100.00
13314;BME280;6725;48.112;11.604;2023-03-12T03:39:18;94932.94;;;0.88;100.00
13314;BME280;6725;48.112;11.604;2023-03-12T03:41:44;94928.84;;;0.94;100.00
13314;BME280;6725;48.112;11.604;2023-03-12T03:44:11;94924.75;;;1.00;100.00
13314;BME280;6725;48.112;11.604;2023-03-12T03:46:37;94926.00;;;1.06;100.00
13314;BME280;6725;48.112;11.604;2023-03-12T03:49:03;94918.03;;;1.10;100.00
13314;BME280;6725;48.112;11.604;2023-03-12T03:51:28;94923.19;;;1.18;100.00
13314;BME280;6725;48.112;11.604;2023-03-12T03:53:53;94933.22;;;1.21;100.00
13314;BME280;6725;48.112;11.604;2023-03-12T03:56:19;94933.22;;;1.21;100.00
13314;BME280;6725;48.112;11.604;2023-03-12T03:58:44;94934.47;;;1.27;100.00
13314;BME280;6725;48.112;11.604;2023-03-12T04:01:12;94931.09;;;1.30;100.00
13314;BME280;6725;48.112;11.604;2023-03-12T04:03:37;94939.59;;;1.32;100.00
13314;BME280;6725;48.112;11.604;2023-03-12T04:06:04;94944.22;;;1.35;100.00
13314;BME280;6725;48.112;11.604;2023-03-12T04:08:30;94949.00;;;1.42;100.00
13314;BME280;6725;48.112;11.604;2023-03-12T04:10:57;94953.72;;;1.48;100.00
13314;BME280;6725;48.112;11.604;2023-03-12T04:13:22;94946.84;;;1.51;100.00
13314;BME280;6725;48.112;11.604;2023-03-12T04:15:52;94950.72;;;1.53;100.00
13314;BME280;6725;48.112;11.604;2023-03-12T04:18:18;94951.56;;;1.57;100.00
13314;BME280;6725;48.112;11.604;2023-03-12T04:20:43;94960.84;;;1.60;100.00
13314;BME280;6725;48.112;11.604;2023-03-12T04:23:09;94963.19;;;1.61;100.00
13314;BME280;6725;48.112;11.604;2023-03-12T04:25:34;94963.59;;;1.63;100.00
13314;BME280;6725;48.112;11.604;2023-03-12T04:27:59;94961.34;;;1.65;100.00
13314;BME280;6725;48.112;11.604;2023-03-12T04:30:26;94961.34;;;1.65;100.00
13314;BME280;6725;48.112;11.604;2023-03-12T04:32:52;94957.16;;;1.68;100.00
13314;BME280;6725;48.112;11.604;2023-03-12T04:35:18;94951.06;;;1.71;100.00
13314;BME280;6725;48.112;11.604;2023-03-12T04:37:44;94954.50;;;1.71;100.00
13314;BME280;6725;48.112;11.604;2023-03-12T04:40:09;94950.31;;;1.74;100.00
13314;BME280;6725;48.112;11.604;2023-03-12T04:42:35;94955.34;;;1.75;100.00
13314;BME280;6725;48.112;11.604;2023-03-12T04:45:03;94955.00;;;1.77;100.00
13314;BME280;6725;48.112;11.604;2023-03-12T04:47:30;94959.63;;;1.76;100.00
13314;BME280;6725;48.112;11.604;2023-03-12T04:49:55;94955.06;;;1.80;100.00
13314;BME280;6725;48.112;11.604;2023-03-12T04:52:20;94962.78;;;1.82;100.00
13314;BME280;6725;48.112;11.604;2023-03-12T04:54:46;94957.78;;;1.80;100.00
13314;BME280;6725;48.112;11.604;2023-03-12T04:57:11;94955.84;;;1.81;100.00
13314;BME280;6725;48.112;11.604;2023-03-12T04:59:36;94953.50;;;1.79;100.00
13314;BME280;6725;48.112;11.604;2023-03-12T05:02:02;94939.94;;;1.72;100.00
13314;BME280;6725;48.112;11.604;2023-03-12T05:04:27;94932.31;;;1.55;100.00
13314;BME280;6725;48.112;11.604;2023-03-12T05:06:53;94932.31;;;1.55;100.00
13314;BME280;6725;48.112;11.604;2023-03-12T05:09:18;94937.72;;;1.55;100.00
13314;BME280;6725;48.112;11.604;2023-03-12T05:11:43;94916.91;;;1.52;100.00
13314;BME280;6725;48.112;11.604;2023-03-12T05:14:10;94928.44;;;1.53;100.00
13314;BME280;6725;48.112;11.604;2023-03-12T05:16:36;94925.41;;;1.54;100.00
13314;BME280;6725;48.112;11.604;2023-03-12T05:19:02;94924.56;;;1.50;100.00
13314;BME280;6725;48.112;11.604;2023-03-12T05:21:28;94926.81;;;1.48;100.00
13314;BME280;6725;48.112;11.604;2023-03-12T05:23:54;94923.41;;;1.51;100.00
13314;BME280;6725;48.112;11.604;2023-03-12T05:26:28;94921.88;;;1.50;100.00
13314;BME280;6725;48.112;11.604;2023-03-12T05:28:56;94914.09;;;1.45;100.00
13314;BME280;6725;48.112;11.604;2023-03-12T05:31:21;94917.59;;;1.49;100.00
13314;BME280;6725;48.112;11.604;2023-03-12T05:33:46;94918.81;;;1.52;100.00
13314;BME280;6725;48.112;11.604;2023-03-12T05:36:13;94916.91;;;1.52;100.00
13314;BME280;6725;48.112;11.604;2023-03-12T05:38:39;94917.81;;;1.60;100.00
13314;BME280;6725;48.112;11.604;2023-03-12T05:41:05;94926.00;;;1.67;100.00
13314;BME280;6725;48.112;11.604;2023-03-12T05:43:31;94917.19;;;1.70;100.00
13314;BME280;6725;48.112;11.604;2023-03-12T05:46:01;94919.25;;;1.76;100.00
13314;BME280;6725;48.112;11.604;2023-03-12T05:48:28;94924.31;;;1.81;100.00
13314;BME280;6725;48.112;11.604;2023-03-12T05:50:54;94915.59;;;1.88;100.00
13314;BME280;6725;48.112;11.604;2023-03-12T05:53:19;94924.13;;;1.93;100.00
13314;BME280;6725;48.112;11.604;2023-03-12T05:55:45;94932.69;;;1.99;100.00
13314;BME280;6725;48.112;11.604;2023-03-12T05:58:10;94939.38;;;2.08;100.00
13314;BME280;6725;48.112;11.604;2023-03-12T06:00:36;94932.56;;;2.14;100.00
13314;BME280;6725;48.112;11.604;2023-03-12T06:03:05;94945.78;;;2.23;100.00
13314;BME280;6725;48.112;11.604;2023-03-12T06:05:32;94928.59;;;2.31;100.00
13314;BME280;6725;48.112;11.604;2023-03-12T06:07:57;94933.31;;;2.37;100.00
13314;BME280;6725;48.112;11.604;2023-03-12T06:10:23;94929.16;;;2.43;100.00
13314;BME280;6725;48.112;11.604;2023-03-12T06:12:48;94932.44;;;2.56;100.00
13314;BME280;6725;48.112;11.604;2023-03-12T06:15:14;94925.59;;;2.62;100.00
13314;BME280;6725;48.112;11.604;2023-03-12T06:17:40;94921.13;;;2.73;100.00
13314;BME280;6725;48.112;11.604;2023-03-12T06:20:06;94928.16;;;2.81;100.00
13314;BME280;6725;48.112;11.604;2023-03-12T06:22:32;94918.16;;;2.81;100.00
13314;BME280;6725;48.112;11.604;2023-03-12T06:24:57;94919.81;;;2.89;100.00
13314;BME280;6725;48.112;11.604;2023-03-12T06:27:22;94919.47;;;2.94;100.00
13314;BME280;6725;48.112;11.604;2023-03-12T06:29:48;94910.66;;;2.97;100.00
13314;BME280;6725;48.112;11.604;2023-03-12T06:32:13;94914.50;;;2.96;100.00
13314;BME280;6725;48.112;11.604;2023-03-12T06:34:39;94907.63;;;3.02;100.00
13314;BME280;6725;48.112;11.604;2023-03-12T06:37:04;94915.81;;;3.09;100.00
13314;BME280;6725;48.112;11.604;2023-03-12T06:39:33;94919.38;;;3.17;100.00
13314;BME280;6725;48.112;11.604;2023-03-12T06:41:58;94925.63;;;3.24;100.00
13314;BME280;6725;48.112;11.604;2023-03-12T06:44:24;94925.78;;;3.38;100.00
13314;BME280;6725;48.112;11.604;2023-03-12T06:46:49;94924.38;;;3.51;100.00
13314;BME280;6725;48.112;11.604;2023-03-12T06:49:16;94933.78;;;3.65;100.00
13314;BME280;6725;48.112;11.604;2023-03-12T06:51:42;94936.91;;;3.67;100.00
13314;BME280;6725;48.112;11.604;2023-03-12T06:54:07;94940.81;;;3.73;100.00
13314;BME280;6725;48.112;11.604;2023-03-12T06:56:32;94947.44;;;3.79;100.00
13314;BME280;6725;48.112;11.604;2023-03-12T06:58:58;94949.34;;;3.78;100.00
13314;BME280;6725;48.112;11.604;2023-03-12T07:01:23;94954.72;;;3.75;100.00
13314;BME280;6725;48.112;11.604;2023-03-12T07:03:49;94957.34;;;3.68;100.00
13314;BME280;6725;48.112;11.604;2023-03-12T07:06:19;94963.91;;;3.70;100.00
13314;BME280;6725;48.112;11.604;2023-03-12T07:08:45;94962.09;;;3.78;100.00
13314;BME280;6725;48.112;11.604;2023-03-12T07:11:11;94963.28;;;3.84;100.00
13314;BME280;6725;48.112;11.604;2023-03-12T07:13:38;94954.16;;;3.99;100.00
13314;BME280;6725;48.112;11.604;2023-03-12T07:16:04;94953.91;;;4.11;100.00
13314;BME280;6725;48.112;11.604;2023-03-12T07:18:30;94955.84;;;4.10;100.00
13314;BME280;6725;48.112;11.604;2023-03-12T07:20:55;94945.47;;;4.16;100.00
13314;BME280;6725;48.112;11.604;2023-03-12T07:23:21;94945.47;;;4.16;100.00
13314;BME280;6725;48.112;11.604;2023-03-12T07:25:47;94947.06;;;4.24;100.00
13314;BME280;6725;48.112;11.604;2023-03-12T07:28:13;94943.50;;;4.13;100.00
13314;BME280;6725;48.112;11.604;2023-03-12T07:30:40;94933.50;;;4.17;100.00
13314;BME280;6725;48.112;11.604;2023-03-12T07:33:10;94932.81;;;4.27;100.00
13314;BME280;6725;48.112;11.604;2023-03-12T07:35:38;94924.47;;;4.46;100.00
13314;BME280;6725;48.112;11.604;2023-03-12T07:38:04;94918.75;;;4.58;100.00
13314;BME280;6725;48.112;11.604;2023-03-12T07:40:30;94923.88;;;4.70;100.00
13314;BME280;6725;48.112;11.604;2023-03-12T07:42:56;94923.22;;;4.90;100.00
13314;BME280;6725;48.112;11.604;2023-03-12T07:45:22;94913.22;;;5.05;100.00
13314;BME280;6725;48.112;11.604;2023-03-12T07:47:48;94919.47;;;5.12;100.00
13314;BME280;6725;48.112;11.604;2023-03-12T07:50:14;94920.25;;;5.20;100.00
13314;BME280;6725;48.112;11.604;2023-03-12T07:52:40;94920.72;;;5.36;100.00
13314;BME280;6725;48.112;11.604;2023-03-12T07:55:06;94930.47;;;5.65;100.00
13314;BME280;6725;48.112;11.604;2023-03-12T07:57:32;94932.13;;;5.87;100.00
13314;BME280;6725;48.112;11.604;2023-03-12T07:59:57;94931.66;;;5.78;100.00
13314;BME280;6725;48.112;11.604;2023-03-12T08:02:22;94935.97;;;5.82;100.00
13314;BME280;6725;48.112;11.604;2023-03-12T08:04:48;94932.88;;;5.94;100.00
13314;BME280;6725;48.112;11.604;2023-03-12T08:07:13;94939.88;;;6.02;100.00
13314;BME280;6725;48.112;11.604;2023-03-12T08:09:39;94956.13;;;5.95;100.00
13314;BME280;6725;48.112;11.604;2023-03-12T08:12:05;94954.16;;;5.82;100.00
13314;BME280;6725;48.112;11.604;2023-03-12T08:14:30;94956.03;;;5.78;100.00
13314;BME280;6725;48.112;11.604;2023-03-12T08:16:57;94951.03;;;5.80;100.00
13314;BME280;6725;48.112;11.604;2023-03-12T08:19:23;94952.19;;;5.79;100.00
13314;BME280;6725;48.112;11.604;2023-03-12T08:21:49;94951.47;;;5.85;100.00
13314;BME280;6725;48.112;11.604;2023-03-12T08:24:15;94959.59;;;5.96;100.00
13314;BME280;6725;48.112;11.604;2023-03-12T08:26:40;94956.91;;;5.92;100.00
13314;BME280;6725;48.112;11.604;2023-03-12T08:29:06;94953.00;;;5.83;100.00
13314;BME280;6725;48.112;11.604;2023-03-12T08:31:31;94953.69;;;5.69;100.00
13314;BME280;6725;48.112;11.604;2023-03-12T08:33:57;94949.44;;;5.65;100.00
13314;BME280;6725;48.112;11.604;2023-03-12T08:36:22;94943.63;;;5.70;100.00
13314;BME280;6725;48.112;11.604;2023-03-12T08:38:48;94948.31;;;5.73;100.00
13314;BME280;6725;48.112;11.604;2023-03-12T08:41:13;94951.00;;;5.73;100.00
13314;BME280;6725;48.112;11.604;2023-03-12T08:43:38;94955.25;;;5.70;100.00
13314;BME280;6725;48.112;11.604;2023-03-12T08:46:04;94947.13;;;5.74;100.00
13314;BME280;6725;48.112;11.604;2023-03-12T08:48:30;94955.31;;;5.81;100.00
13314;BME280;6725;48.112;11.604;2023-03-12T08:50:57;94953.00;;;5.83;100.00
13314;BME280;6725;48.112;11.604;2023-03-12T08:53:24;94949.91;;;5.81;100.00
13314;BME280;6725;48.112;11.604;2023-03-12T08:55:53;94955.25;;;5.74;100.00
13314;BME280;6725;48.112;11.604;2023-03-12T08:58:20;94942.88;;;5.73;100.00
13314;BME280;6725;48.112;11.604;2023-03-12T09:00:45;94942.47;;;5.71;100.00
13314;BME280;6725;48.112;11.604;2023-03-12T09:03:10;94940.50;;;5.54;100.00
13314;BME280;6725;48.112;11.604;2023-03-12T09:05:39;94934.69;;;5.52;100.00
13314;BME280;6725;48.112;11.604;2023-03-12T09:08:04;94910.34;;;5.55;100.00
13314;BME280;6725;48.112;11.604;2023-03-12T09:10:30;94909.97;;;5.57;100.00
13314;BME280;6725;48.112;11.604;2023-03-12T09:12:55;94904.19;;;5.69;100.00
13314;BME280;6725;48.112;11.604;2023-03-12T09:15:20;94897.22;;;5.75;100.00
13314;BME280;6725;48.112;11.604;2023-03-12T09:17:46;94882.19;;;6.02;100.00
13314;BME280;6725;48.112;11.604;2023-03-12T09:20:12;94882.19;;;6.37;100.00
13314;BME280;6725;48.112;11.604;2023-03-12T09:22:40;94886.47;;;6.45;100.00
13314;BME280;6725;48.112;11.604;2023-03-12T09:25:08;94894.59;;;6.27;100.00
13314;BME280;6725;48.112;11.604;2023-03-12T09:27:44;94898.06;;;6.14;100.00
13314;BME280;6725;48.112;11.604;2023-03-12T09:30:16;94898.78;;;5.76;100.00
13314;BME280;6725;48.112;11.604;2023-03-12T09:32:42;94892.91;;;5.53;100.00
13314;BME280;6725;48.112;11.604;2023-03-12T09:35:12;94887.91;;;5.65;100.00
13314;BME280;6725;48.112;11.604;2023-03-12T09:37:38;94877.47;;;5.57;100.00
13314;BME280;6725;48.112;11.604;2023-03-12T09:40:04;94873.13;;;5.28;100.00
13314;BME280;6725;48.112;11.604;2023-03-12T09:43:03;94873.53;;;5.37;100.00
13314;BME280;6725;48.112;11.604;2023-03-12T09:45:30;94863.13;;;5.49;100.00
13314;BME280;6725;48.112;11.604;2023-03-12T09:47:59;94853.81;;;5.29;100.00
13314;BME280;6725;48.112;11.604;2023-03-12T09:50:35;94838.34;;;5.37;100.00
13314;BME280;6725;48.112;11.604;2023-03-12T09:53:31;94829.78;;;5.14;100.00
13314;BME280;6725;48.112;11.604;2023-03-12T09:55:59;94817.75;;;5.01;100.00
13314;BME280;6725;48.112;11.604;2023-03-12T09:58:34;94803.06;;;5.02;100.00
13314;BME280;6725;48.112;11.604;2023-03-12T10:21:46;94533.75;;;4.73;100.00
13314;BME280;6725;48.112;11.604;2023-03-12T10:27:12;94297.25;;;4.91;100.00
13314;BME280;6725;48.112;11.604;2023-03-12T10:29:40;94277.19;;;4.85;100.00
13314;BME280;6725;48.112;11.604;2023-03-12T10:32:14;94247.53;;;4.71;100.00
13314;BME280;6725;48.112;11.604;2023-03-12T10:34:47;94253.47;;;4.28;100.00
13314;BME280;6725;48.112;11.604;2023-03-12T10:38:03;94239.66;;;4.12;100.00
13314;BME280;6725;48.112;11.604;2023-03-12T10:40:21;94208.06;;;3.88;100.00
13314;BME280;6725;48.112;11.604;2023-03-12T10:42:48;94161.75;;;4.00;100.00
13314;BME280;6725;48.112;11.604;2023-03-12T10:45:28;94125.09;;;3.99;100.00
13314;BME280;6725;48.112;11.604;2023-03-12T10:48:02;94079.94;;;4.06;100.00
13314;BME280;6725;48.112;11.604;2023-03-12T10:50:31;94059.88;;;4.07;100.00
13314;BME280;6725;48.112;11.604;2023-03-12T10:53:23;94062.88;;;4.20;100.00
13314;BME280;6725;48.112;11.604;2023-03-12T10:56:09;94083.66;;;4.26;100.00
13314;BME280;6725;48.112;11.604;2023-03-12T10:58:49;94032.34;;;4.30;100.00
13314;BME280;6725;48.112;11.604;2023-03-12T11:03:41;94028.81;;;4.40;100.00
13314;BME280;6725;48.112;11.604;2023-03-12T11:06:08;93980.75;;;4.58;100.00
13314;BME280;6725;48.112;11.604;2023-03-12T11:08:39;93945.88;;;4.74;100.00
13314;BME280;6725;48.112;11.604;2023-03-12T11:11:05;93909.41;;;4.85;100.00
13314;BME280;6725;48.112;11.604;2023-03-12T11:13:35;93901.94;;;5.00;100.00
13314;BME280;6725;48.112;11.604;2023-03-12T11:16:23;93877.38;;;5.17;100.00
13314;BME280;6725;48.112;11.604;2023-03-12T11:18:57;93862.56;;;5.25;100.00
13314;BME280;6725;48.112;11.604;2023-03-12T11:21:29;93876.97;;;5.19;100.00
13314;BME280;6725;48.112;11.604;2023-03-12T11:26:51;93858.56;;;5.37;100.00
13314;BME280;6725;48.112;11.604;2023-03-12T11:29:23;93848.16;;;5.62;100.00
13314;BME280;6725;48.112;11.604;2023-03-12T11:32:02;93852.44;;;5.86;100.00
13314;BME280;6725;48.112;11.604;2023-03-12T11:34:33;93846.56;;;6.14;100.00
13314;BME280;6725;48.112;11.604;2023-03-12T11:37:18;93880.88;;;6.01;100.00
13314;BME280;6725;48.112;11.604;2023-03-12T12:05:52;93902.25;;;6.84;100.00
13314;BME280;6725;48.112;11.604;2023-03-12T12:16:19;93936.38;;;6.85;100.00
13314;BME280;6725;48.112;11.604;2023-03-12T12:18:56;93943.66;;;6.88;100.00
13314;BME280;6725;48.112;11.604;2023-03-12T12:24:34;93937.81;;;7.13;100.00
13314;BME280;6725;48.112;11.604;2023-03-12T12:27:14;93928.94;;;7.28;100.00
13314;BME280;6725;48.112;11.604;2023-03-12T12:32:38;93925.41;;;7.31;100.00
13314;BME280;6725;48.112;11.604;2023-03-12T12:38:02;93904.66;;;7.41;100.00
13314;BME280;6725;48.112;11.604;2023-03-12T12:40:35;93910.56;;;7.55;100.00
13314;BME280;6725;48.112;11.604;2023-03-12T12:45:37;93891.69;;;7.68;100.00
13314;BME280;6725;48.112;11.604;2023-03-12T12:48:10;93890.06;;;7.70;100.00
13314;BME280;6725;48.112;11.604;2023-03-12T12:50:38;93886.00;;;7.78;100.00
13314;BME280;6725;48.112;11.604;2023-03-12T12:53:12;93894.66;;;7.73;100.00
13314;BME280;6725;48.112;11.604;2023-03-12T12:56:16;93897.84;;;7.68;100.00
13314;BME280;6725;48.112;11.604;2023-03-12T12:58:44;93884.31;;;7.84;100.00
13314;BME280;6725;48.112;11.604;2023-03-12T13:01:14;93873.97;;;7.95;100.00
13314;BME280;6725;48.112;11.604;2023-03-12T13:03:40;93867.50;;;8.05;100.00
13314;BME280;6725;48.112;11.604;2023-03-12T13:06:06;93868.00;;;8.16;100.00
13314;BME280;6725;48.112;11.604;2023-03-12T13:11:21;93860.22;;;8.18;100.00
13314;BME280;6725;48.112;11.604;2023-03-12T13:13:50;93849.69;;;8.36;100.00
13314;BME280;6725;48.112;11.604;2023-03-12T13:16:45;93847.63;;;8.56;100.00
13314;BME280;6725;48.112;11.604;2023-03-12T13:24:34;93845.84;;;8.94;100.00
13314;BME280;6725;48.112;11.604;2023-03-12T13:32:00;93863.38;;;9.34;100.00
13314;BME280;6725;48.112;11.604;2023-03-12T13:36:53;93896.75;;;9.38;100.00
13314;BME280;6725;48.112;11.604;2023-03-12T13:39:34;93902.41;;;9.44;100.00
13314;BME280;6725;48.112;11.604;2023-03-12T13:42:47;93923.78;;;9.45;100.00
13314;BME280;6725;48.112;11.604;2023-03-12T13:44:46;93915.41;;;9.65;100.00
13314;BME280;6725;48.112;11.604;2023-03-12T13:47:36;93934.53;;;9.77;100.00
13314;BME280;6725;48.112;11.604;2023-03-12T13:50:14;93955.59;;;9.77;100.00
13314;BME280;6725;48.112;11.604;2023-03-12T13:52:45;93976.88;;;9.94;100.00
13314;BME280;6725;48.112;11.604;2023-03-12T13:55:24;94004.44;;;10.13;100.00
13314;BME280;6725;48.112;11.604;2023-03-12T14:01:05;94101.91;;;10.25;100.00
13314;BME280;6725;48.112;11.604;2023-03-12T14:03:40;94140.94;;;10.22;100.00
13314;BME280;6725;48.112;11.604;2023-03-12T14:06:13;94171.16;;;10.14;100.00
13314;BME280;6725;48.112;11.604;2023-03-12T14:12:01;94229.22;;;9.99;100.00
13314;BME280;6725;48.112;11.604;2023-03-12T14:17:44;94223.44;;;10.13;100.00
13314;BME280;6725;48.112;11.604;2023-03-12T14:20:19;94230.31;;;10.18;100.00
13314;BME280;6725;48.112;11.604;2023-03-12T14:23:01;94245.13;;;10.33;100.00
13314;BME280;6725;48.112;11.604;2023-03-12T14:25:38;94245.84;;;10.49;100.00
13314;BME280;6725;48.112;11.604;2023-03-12T14:28:11;94256.31;;;10.67;100.00
13314;BME280;6725;48.112;11.604;2023-03-12T14:30:59;94273.50;;;10.80;100.00
13314;BME280;6725;48.112;11.604;2023-03-12T14:33:30;94328.28;;;10.73;100.00
13314;BME280;6725;48.112;11.604;2023-03-12T14:36:11;94359.50;;;10.88;100.00
13314;BME280;6725;48.112;11.604;2023-03-12T14:38:42;94391.41;;;10.91;100.00
13314;BME280;6725;48.112;11.604;2023-03-12T14:41:24;94418.03;;;10.87;100.00
13314;BME280;6725;48.112;11.604;2023-03-12T14:43:52;94437.69;;;10.82;100.00
13314;BME280;6725;48.112;11.604;2023-03-12T14:46:21;94477.72;;;10.72;100.00
13314;BME280;6725;48.112;11.604;2023-03-12T14:48:51;94494.75;;;10.60;100.00
13314;BME280;6725;48.112;11.604;2023-03-12T14:51:23;94495.09;;;10.62;100.00
13314;BME280;6725;48.112;11.604;2023-03-12T14:53:50;94504.06;;;10.63;100.00